createdAt,value
2019-03-29T00:00:32.063Z,102668.19
2019-03-29T00:03:04.464Z,102664.27
2019-03-29T00:05:36.544Z,102667.25
2019-03-29T00:08:09.572Z,102670.36
2019-03-29T00:10:42.369Z,102668.61
2019-03-29T00:13:14.847Z,102670.33
2019-03-29T00:15:48.114Z,102667.25
2019-03-29T00:18:20.663Z,102666.80
2019-03-29T00:20:52.717Z,102663.23
2019-03-29T00:23:25.237Z,102660.16
2019-03-29T00:25:57.314Z,102653.63
2019-03-29T00:28:29.966Z,102653.19
2019-03-29T00:31:02.054Z,102653.63
2019-03-29T00:33:34.118Z,102648.39
2019-03-29T00:36:06.164Z,102644.04
2019-03-29T00:38:38.609Z,102642.31
2019-03-29T00:41:10.657Z,102640.11
2019-03-29T00:43:42.712Z,102640.11
2019-03-29T00:46:14.858Z,102632.64
2019-03-29T00:48:47.428Z,102636.13
2019-03-29T00:51:20.293Z,102636.13
2019-03-29T00:53:52.354Z,102628.22
2019-03-29T00:56:25.237Z,102627.33
2019-03-29T00:58:57.384Z,102628.56
2019-03-29T01:01:29.876Z,102625.51
2019-03-29T01:04:02.964Z,102631.27
2019-03-29T01:06:35.215Z,102631.27
2019-03-29T01:09:08.994Z,102627.78
2019-03-29T01:11:41.612Z,102632.17
2019-03-29T01:14:13.731Z,102628.73
2019-03-29T01:16:45.805Z,102625.25
2019-03-29T01:19:19.152Z,102621.72
2019-03-29T01:21:51.193Z,102629.56
2019-03-29T01:24:24.077Z,102636.09
2019-03-29T01:26:56.826Z,102633.95
2019-03-29T01:29:28.865Z,102626.53
2019-03-29T01:32:00.983Z,102626.11
2019-03-29T01:34:33.063Z,102626.93
2019-03-29T01:37:05.137Z,102629.56
2019-03-29T01:39:37.589Z,102639.10
2019-03-29T01:42:10.043Z,102628.73
2019-03-29T01:44:42.638Z,102623.42
2019-03-29T01:47:15.247Z,102616.48
2019-03-29T01:49:48.013Z,102623.45
2019-03-29T01:52:20.273Z,102625.17
2019-03-29T01:54:52.848Z,102621.78
2019-03-29T01:57:24.892Z,102620.41
2019-03-29T01:59:56.914Z,102613.07
2019-03-29T02:02:29.049Z,102609.13
2019-03-29T02:05:01.596Z,102610.03
2019-03-29T02:07:33.670Z,102606.12
2019-03-29T02:10:08.393Z,102609.67
2019-03-29T02:12:40.447Z,102611.81
2019-03-29T02:15:12.848Z,102602.67
2019-03-29T02:17:44.935Z,102606.12
2019-03-29T02:20:17.220Z,102598.20
2019-03-29T02:22:49.247Z,102600.81
2019-03-29T02:25:21.416Z,102589.47
2019-03-29T02:27:53.463Z,102590.48
2019-03-29T02:30:25.520Z,102594.84
2019-03-29T02:32:57.740Z,102593.54
2019-03-29T02:35:29.799Z,102592.22
2019-03-29T02:38:01.835Z,102582.59
2019-03-29T02:40:33.994Z,102585.20
2019-03-29T02:43:06.486Z,102578.20
2019-03-29T02:45:38.544Z,102577.37
2019-03-29T02:48:11.610Z,102579.89
2019-03-29T02:50:43.679Z,102582.05
2019-03-29T02:53:16.484Z,102585.55
2019-03-29T02:55:49.414Z,102583.91
2019-03-29T02:58:21.801Z,102588.22
2019-03-29T03:00:54.159Z,102584.73
2019-03-29T03:03:26.599Z,102573.84
2019-03-29T03:05:58.975Z,102575.57
2019-03-29T03:08:33.179Z,102574.68
2019-03-29T03:11:06.507Z,102575.44
2019-03-29T03:13:38.574Z,102574.27
2019-03-29T03:16:11.056Z,102573.45
2019-03-29T03:18:43.827Z,102572.61
2019-03-29T03:21:16.871Z,102573.77
2019-03-29T03:23:49.592Z,102573.28
2019-03-29T03:26:22.371Z,102576.41
2019-03-29T03:28:54.447Z,102574.75
2019-03-29T03:31:27.356Z,102579.07
2019-03-29T03:34:00.308Z,102573.72
2019-03-29T03:36:32.563Z,102576.41
2019-03-29T03:39:08.111Z,102569.50
2019-03-29T03:41:40.877Z,102569.44
2019-03-29T03:44:12.923Z,102569.87
2019-03-29T03:46:45.464Z,102577.77
2019-03-29T03:49:17.701Z,102573.84
2019-03-29T03:51:50.286Z,102579.52
2019-03-29T03:54:22.522Z,102577.77
2019-03-29T03:56:56.263Z,102577.34
2019-03-29T03:59:31.668Z,102581.69
2019-03-29T04:02:04.152Z,102574.20
2019-03-29T04:04:37.881Z,102577.30
2019-03-29T04:07:11.417Z,102572.90
2019-03-29T04:09:49.870Z,102579.44
2019-03-29T04:12:17.784Z,102572.90
2019-03-29T04:14:50.682Z,102571.16
2019-03-29T04:17:22.767Z,102571.16
2019-03-29T04:19:55.213Z,102572.06
2019-03-29T04:22:27.535Z,102579.44
2019-03-29T04:24:59.966Z,102572.95
2019-03-29T04:27:32.068Z,102565.93
2019-03-29T04:30:05.077Z,102558.92
2019-03-29T04:32:37.192Z,102561.41
2019-03-29T04:35:10.330Z,102568.13
2019-03-29T04:37:45.575Z,102565.45
2019-03-29T04:40:18.651Z,102558.02
2019-03-29T04:42:51.123Z,102559.76
2019-03-29T04:45:23.251Z,102559.33
2019-03-29T04:47:55.770Z,102558.92
2019-03-29T04:50:27.810Z,102558.44
2019-03-29T04:52:59.814Z,102554.52
2019-03-29T04:55:31.784Z,102560.62
2019-03-29T04:58:04.232Z,102560.55
2019-03-29T05:00:36.308Z,102566.14
2019-03-29T05:03:08.766Z,102560.03
2019-03-29T05:05:40.905Z,102564.98
2019-03-29T05:08:13.073Z,102560.48
2019-03-29T05:10:45.139Z,102566.20
2019-03-29T05:13:17.310Z,102558.77
2019-03-29T05:15:49.290Z,102560.55
2019-03-29T05:18:21.342Z,102560.91
2019-03-29T05:20:53.730Z,102559.17
2019-03-29T05:23:25.773Z,102557.47
2019-03-29T05:25:58.951Z,102564.89
2019-03-29T05:28:32.283Z,102559.61
2019-03-29T05:31:04.751Z,102560.97
2019-03-29T05:33:37.760Z,102558.85
2019-03-29T05:36:10.211Z,102557.55
2019-03-29T05:38:43.415Z,102559.91
2019-03-29T05:41:15.488Z,102562.52
2019-03-29T05:43:48.550Z,102550.74
2019-03-29T05:46:20.926Z,102557.34
2019-03-29T05:48:53.392Z,102559.55
2019-03-29T05:51:25.491Z,102557.42
2019-03-29T05:53:58.112Z,102557.42
2019-03-29T05:56:30.531Z,102561.40
2019-03-29T05:59:03.121Z,102558.86
2019-03-29T06:01:35.128Z,102559.34
2019-03-29T06:04:07.547Z,102559.00
2019-03-29T06:06:40.036Z,102557.86
2019-03-29T06:09:12.118Z,102566.22
2019-03-29T06:11:44.124Z,102567.59
2019-03-29T06:14:16.260Z,102565.50
2019-03-29T06:16:48.302Z,102569.95
2019-03-29T06:19:20.503Z,102562.23
2019-03-29T06:21:52.929Z,102561.41
2019-03-29T06:24:25.032Z,102563.69
2019-03-29T06:26:58.002Z,102569.06
2019-03-29T06:29:30.824Z,102565.61
2019-03-29T06:32:03.434Z,102563.06
2019-03-29T06:34:35.913Z,102567.52
2019-03-29T06:37:09.854Z,102560.20
2019-03-29T06:39:42.599Z,102571.69
2019-03-29T06:42:15.075Z,102564.39
2019-03-29T06:44:47.198Z,102561.00
2019-03-29T06:47:19.708Z,102569.94
2019-03-29T06:49:52.518Z,102569.88
2019-03-29T06:52:25.146Z,102571.00
2019-03-29T06:54:57.197Z,102573.92
2019-03-29T06:57:29.293Z,102562.68
2019-03-29T07:00:02.661Z,102569.28
2019-03-29T07:02:34.803Z,102570.34
2019-03-29T07:05:06.874Z,102567.23
2019-03-29T07:07:38.969Z,102567.60
2019-03-29T07:10:11.073Z,102564.58
2019-03-29T07:12:43.148Z,102571.77
2019-03-29T07:15:17.349Z,102572.30
2019-03-29T07:17:49.398Z,102567.00
2019-03-29T07:20:22.344Z,102569.88
2019-03-29T07:22:54.475Z,102567.51
2019-03-29T07:25:27.356Z,102570.13
2019-03-29T07:27:59.377Z,102565.72
2019-03-29T07:30:31.457Z,102567.23
2019-03-29T07:33:03.548Z,102567.47
2019-03-29T07:35:36.012Z,102563.44
2019-03-29T07:38:08.519Z,102566.44
2019-03-29T07:40:40.952Z,102560.72
2019-03-29T07:43:13.096Z,102563.73
2019-03-29T07:45:46.215Z,102568.01
2019-03-29T07:48:19.217Z,102570.50
2019-03-29T07:50:51.439Z,102568.49
2019-03-29T07:53:24.080Z,102561.66
2019-03-29T07:55:57.809Z,102567.55
2019-03-29T07:58:30.394Z,102572.45
2019-03-29T08:01:02.781Z,102558.27
2019-03-29T08:03:35.288Z,102561.72
2019-03-29T08:06:08.587Z,102558.78
2019-03-29T08:08:41.067Z,102553.28
2019-03-29T08:11:25.418Z,102555.55
2019-03-29T08:13:47.680Z,102556.97
2019-03-29T08:16:20.844Z,102551.45
2019-03-29T08:18:52.865Z,102545.46
2019-03-29T08:21:25.787Z,102546.38
2019-03-29T08:23:58.113Z,102542.83
2019-03-29T08:26:31.967Z,102539.84
2019-03-29T08:29:04.047Z,102546.22
2019-03-29T08:31:36.148Z,102550.53
2019-03-29T08:34:08.170Z,102543.42
2019-03-29T08:36:41.139Z,102540.44
2019-03-29T08:39:26.970Z,102545.71
2019-03-29T08:41:59.447Z,102545.84
2019-03-29T08:44:22.660Z,102539.63
2019-03-29T08:46:55.661Z,102546.74
2019-03-29T08:49:28.505Z,102540.43
2019-03-29T08:52:01.417Z,102534.94
2019-03-29T08:54:34.425Z,102540.45
2019-03-29T08:57:10.326Z,102540.08
2019-03-29T08:59:40.584Z,102538.06
2019-03-29T09:02:12.917Z,102524.17
2019-03-29T09:04:45.569Z,102527.21
2019-03-29T09:07:17.683Z,102523.70
2019-03-29T09:09:49.893Z,102515.70
2019-03-29T09:12:22.022Z,102517.52
2019-03-29T09:14:54.780Z,102514.91
2019-03-29T09:17:26.811Z,102507.30
2019-03-29T09:19:58.904Z,102503.63
2019-03-29T09:22:31.010Z,102505.33
2019-03-29T09:25:03.139Z,102497.16
2019-03-29T09:27:35.242Z,102496.19
2019-03-29T09:30:07.760Z,102496.25
2019-03-29T09:32:39.837Z,102490.28
2019-03-29T09:35:12.010Z,102494.23
2019-03-29T09:37:44.041Z,102499.98
2019-03-29T09:40:16.674Z,102494.19
2019-03-29T09:42:52.179Z,102492.05
2019-03-29T09:45:23.185Z,102497.30
2019-03-29T09:47:56.042Z,102489.33
2019-03-29T09:50:28.298Z,102486.73
2019-03-29T09:53:01.372Z,102483.69
2019-03-29T09:55:34.619Z,102481.09
2019-03-29T09:58:06.708Z,102482.31
2019-03-29T10:00:38.783Z,102479.38
2019-03-29T10:03:11.340Z,102474.29
2019-03-29T10:05:43.402Z,102473.91
2019-03-29T10:08:15.469Z,102476.55
2019-03-29T10:10:47.672Z,102478.58
2019-03-29T10:13:19.783Z,102471.00
2019-03-29T10:15:52.568Z,102473.89
2019-03-29T10:18:24.657Z,102474.50
2019-03-29T10:20:56.762Z,102465.73
2019-03-29T10:23:28.828Z,102463.98
2019-03-29T10:26:01.840Z,102460.23
2019-03-29T10:28:33.892Z,102459.88
2019-03-29T10:31:06.456Z,102449.41
2019-03-29T10:33:38.520Z,102443.03
2019-03-29T10:36:10.564Z,102444.59
2019-03-29T10:38:42.705Z,102448.13
2019-03-29T10:41:15.196Z,102438.03
2019-03-29T10:43:47.259Z,102438.95
2019-03-29T10:46:19.995Z,102437.20
2019-03-29T10:48:52.868Z,102428.38
2019-03-29T10:51:24.882Z,102422.91
2019-03-29T10:53:57.909Z,102416.58
2019-03-29T10:56:34.506Z,102421.20
2019-03-29T10:59:05.339Z,102421.05
2019-03-29T11:01:37.395Z,102411.05
2019-03-29T11:04:09.505Z,102410.30
2019-03-29T11:06:41.567Z,102403.58
2019-03-29T11:09:14.125Z,102399.95
2019-03-29T11:11:46.229Z,102398.12
2019-03-29T11:14:18.886Z,102388.61
2019-03-29T11:16:50.914Z,102383.09
2019-03-29T11:19:23.142Z,102385.91
2019-03-29T11:21:55.256Z,102383.21
2019-03-29T11:24:28.210Z,102376.73
2019-03-29T11:27:00.271Z,102374.56
2019-03-29T11:29:34.632Z,102366.07
2019-03-29T11:32:07.683Z,102363.77
2019-03-29T11:34:40.209Z,102358.70
2019-03-29T11:37:12.478Z,102368.79
2019-03-29T11:39:44.513Z,102357.33
2019-03-29T11:42:17.478Z,102355.02
2019-03-29T11:44:50.416Z,102345.60
2019-03-29T11:47:23.361Z,102340.62
2019-03-29T11:49:55.442Z,102336.91
2019-03-29T11:52:27.671Z,102339.08
2019-03-29T11:55:00.380Z,102329.42
2019-03-29T11:57:32.514Z,102326.83
2019-03-29T12:00:04.603Z,102332.16
2019-03-29T12:02:36.695Z,102326.88
2019-03-29T12:05:08.980Z,102316.75
2019-03-29T12:07:41.954Z,102308.81
2019-03-29T12:10:14.553Z,102318.56
2019-03-29T12:12:46.655Z,102301.09
2019-03-29T12:15:19.211Z,102302.34
2019-03-29T12:17:51.252Z,102289.72
2019-03-29T12:20:23.415Z,102289.72
2019-03-29T12:22:55.975Z,102285.86
2019-03-29T12:25:28.623Z,102285.90
2019-03-29T12:28:01.488Z,102286.47
2019-03-29T12:30:34.157Z,102273.64
2019-03-29T12:33:06.246Z,102277.01
2019-03-29T12:35:38.380Z,102275.46
2019-03-29T12:38:10.444Z,102269.25
2019-03-29T12:40:45.050Z,102268.34
2019-03-29T12:43:16.275Z,102252.28
2019-03-29T12:45:50.083Z,102251.76
2019-03-29T12:48:22.216Z,102245.37
2019-03-29T12:50:54.756Z,102238.20
2019-03-29T12:53:26.854Z,102242.63
2019-03-29T12:55:59.112Z,102238.86
2019-03-29T12:58:31.242Z,102232.42
2019-03-29T13:01:03.352Z,102229.10
2019-03-29T13:03:35.414Z,102213.86
2019-03-29T13:06:07.618Z,102215.10
2019-03-29T13:08:40.762Z,102226.56
2019-03-29T13:11:12.989Z,102216.32
2019-03-29T13:13:45.138Z,102217.09
2019-03-29T13:16:17.199Z,102205.94
2019-03-29T13:18:53.472Z,102206.44
2019-03-29T13:25:12.631Z,102209.66
2019-03-29T13:27:45.893Z,102199.00
2019-03-29T13:30:19.231Z,102193.95
2019-03-29T13:32:51.348Z,102190.02
2019-03-29T13:35:24.616Z,102182.59
2019-03-29T13:37:57.928Z,102178.63
2019-03-29T13:40:30.815Z,102180.80
2019-03-29T13:43:03.288Z,102171.34
2019-03-29T13:45:35.333Z,102167.81
2019-03-29T13:48:07.444Z,102164.17
2019-03-29T13:50:39.518Z,102150.31
2019-03-29T13:53:11.615Z,102146.25
2019-03-29T13:55:43.778Z,102145.79
2019-03-29T13:58:16.571Z,102148.34
2019-03-29T14:00:49.081Z,102142.24
2019-03-29T14:03:21.707Z,102128.96
2019-03-29T14:05:54.193Z,102131.83
2019-03-29T14:08:26.750Z,102126.03
2019-03-29T14:10:59.795Z,102122.88
2019-03-29T14:13:32.271Z,102115.95
2019-03-29T14:16:04.696Z,102107.63
2019-03-29T14:18:36.816Z,102110.56
2019-03-29T14:21:09.230Z,102099.44
2019-03-29T14:23:41.344Z,102103.94
2019-03-29T14:26:16.156Z,102103.30
2019-03-29T14:28:48.039Z,102098.41
2019-03-29T14:31:20.760Z,102099.28
2019-03-29T14:33:53.262Z,102094.41
2019-03-29T14:36:25.754Z,102088.68
2019-03-29T14:38:57.826Z,102092.67
2019-03-29T14:41:29.930Z,102081.50
2019-03-29T14:44:02.143Z,102084.81
2019-03-29T14:46:34.242Z,102082.23
2019-03-29T14:49:06.375Z,102083.27
2019-03-29T14:51:38.436Z,102082.77
2019-03-29T14:54:10.530Z,102072.73
2019-03-29T14:56:42.729Z,102074.80
2019-03-29T14:59:14.843Z,102085.48
2019-03-29T15:01:47.194Z,102086.59
2019-03-29T15:04:19.273Z,102077.41
2019-03-29T15:06:51.809Z,102078.95
2019-03-29T15:09:23.875Z,102080.45
2019-03-29T15:11:56.344Z,102079.42
2019-03-29T15:14:28.941Z,102072.30
2019-03-29T15:17:01.462Z,102073.80
2019-03-29T15:19:33.574Z,102063.30
2019-03-29T15:22:06.126Z,102057.30
2019-03-29T15:24:38.167Z,102055.53
2019-03-29T15:27:10.295Z,102056.57
2019-03-29T15:29:42.374Z,102052.80
2019-03-29T15:32:14.446Z,102053.06
2019-03-29T15:34:46.525Z,102049.44
2019-03-29T15:37:18.628Z,102032.84
2019-03-29T15:39:51.806Z,102038.00
2019-03-29T15:42:23.926Z,102031.55
2019-03-29T15:44:55.976Z,102022.86
2019-03-29T15:47:28.042Z,102025.18
2019-03-29T15:50:00.978Z,102019.13
2019-03-29T15:52:33.450Z,102021.69
2019-03-29T15:55:05.667Z,102015.91
2019-03-29T15:57:38.050Z,102011.03
2019-03-29T16:00:11.557Z,102010.08
2019-03-29T16:02:43.616Z,102010.86
2019-03-29T16:05:16.325Z,102007.84
2019-03-29T16:07:48.832Z,102010.11
2019-03-29T16:10:21.029Z,102004.25
2019-03-29T16:12:53.577Z,101997.98
2019-03-29T16:15:35.028Z,101997.98
2019-03-29T16:17:59.322Z,101996.30
2019-03-29T16:20:31.478Z,101993.12
2019-03-29T16:23:03.606Z,101990.32
2019-03-29T16:25:35.652Z,101991.03
2019-03-29T16:28:08.511Z,101985.19
2019-03-29T16:30:40.591Z,101982.29
2019-03-29T16:33:12.722Z,101977.05
2019-03-29T16:35:44.820Z,101967.28
2019-03-29T16:38:16.878Z,101967.20
2019-03-29T16:40:49.372Z,101968.23
2019-03-29T16:43:21.474Z,101969.53
2019-03-29T16:45:53.563Z,101961.28
2019-03-29T16:48:25.619Z,101963.16
2019-03-29T16:50:58.229Z,101958.42
2019-03-29T16:53:30.276Z,101962.22
2019-03-29T16:56:02.802Z,101950.83
2019-03-29T16:58:35.344Z,101948.67
2019-03-29T17:01:07.421Z,101954.95
2019-03-29T17:03:39.928Z,101955.03
2019-03-29T17:06:12.025Z,101953.08
2019-03-29T17:08:44.078Z,101952.45
2019-03-29T17:11:16.242Z,101954.78
2019-03-29T17:13:49.046Z,101944.55
2019-03-29T17:16:30.133Z,101947.30
2019-03-29T17:18:55.415Z,101945.72
2019-03-29T17:21:27.572Z,101944.83
2019-03-29T17:24:00.296Z,101947.77
2019-03-29T17:26:32.353Z,101945.61
2019-03-29T17:29:04.580Z,101938.18
2019-03-29T17:31:37.092Z,101938.88
2019-03-29T17:34:09.889Z,101934.87
2019-03-29T17:36:41.940Z,101935.13
2019-03-29T17:39:13.997Z,101938.64
2019-03-29T17:41:46.085Z,101932.56
2019-03-29T17:44:18.187Z,101943.27
2019-03-29T17:46:50.614Z,101934.54
2019-03-29T17:49:22.672Z,101938.59
2019-03-29T17:51:54.718Z,101937.34
2019-03-29T17:54:26.885Z,101950.11
2019-03-29T17:56:59.379Z,101941.87
2019-03-29T17:59:31.498Z,101941.38
2019-03-29T18:02:09.509Z,101940.50
2019-03-29T18:04:37.400Z,101947.19
2019-03-29T18:07:09.465Z,101945.02
2019-03-29T18:09:41.505Z,101943.19
2019-03-29T18:12:14.029Z,101942.41
2019-03-29T18:14:46.217Z,101939.41
2019-03-29T18:17:18.846Z,101942.09
2019-03-29T18:19:51.358Z,101941.78
2019-03-29T18:22:24.663Z,101948.47
2019-03-29T18:24:56.739Z,101939.28
2019-03-29T18:27:28.760Z,101945.86
2019-03-29T18:30:01.673Z,101942.39
2019-03-29T18:32:35.156Z,101941.95
2019-03-29T18:35:07.936Z,101938.05
2019-03-29T18:37:41.114Z,101935.02
2019-03-29T18:40:27.362Z,101935.02
2019-03-29T18:42:59.403Z,101938.53
2019-03-29T18:45:31.488Z,101935.08
2019-03-29T18:48:04.035Z,101935.95
2019-03-29T18:50:36.505Z,101935.95
2019-03-29T18:53:09.086Z,101941.22
2019-03-29T18:55:42.103Z,101939.91
2019-03-29T18:58:14.576Z,101939.05
2019-03-29T19:00:46.616Z,101943.44
2019-03-29T19:03:18.802Z,101938.17
2019-03-29T19:05:51.753Z,101942.56
2019-03-29T19:08:23.888Z,101950.86
2019-03-29T19:10:56.490Z,101943.00
2019-03-29T19:13:28.974Z,101946.05
2019-03-29T19:16:01.127Z,101941.20
2019-03-29T19:18:33.776Z,101941.64
2019-03-29T19:21:05.865Z,101946.84
2019-03-29T19:23:37.950Z,101944.22
2019-03-29T19:26:10.014Z,101944.18
2019-03-29T19:28:42.068Z,101939.66
2019-03-29T19:31:15.012Z,101942.79
2019-03-29T19:33:47.074Z,101946.94
2019-03-29T19:36:19.221Z,101946.84
2019-03-29T19:38:51.310Z,101939.97
2019-03-29T19:41:23.985Z,101938.34
2019-03-29T19:43:56.830Z,101944.02
2019-03-29T19:46:28.973Z,101938.77
2019-03-29T19:49:01.067Z,101938.34
2019-03-29T19:51:33.691Z,101932.19
2019-03-29T19:54:07.866Z,101922.95
2019-03-29T19:56:40.944Z,101925.13
2019-03-29T19:59:12.964Z,101928.56
2019-03-29T20:01:45.584Z,101923.25
2019-03-29T20:04:17.950Z,101924.95
2019-03-29T20:06:49.952Z,101927.48
2019-03-29T20:09:23.021Z,101922.61
2019-03-29T20:11:56.951Z,101922.95
2019-03-29T20:14:29.395Z,101923.66
2019-03-29T20:17:01.482Z,101919.73
2019-03-29T20:19:34.447Z,101919.68
2019-03-29T20:22:06.719Z,101921.06
2019-03-29T20:24:39.907Z,101913.13
2019-03-29T20:27:12.528Z,101912.66
2019-03-29T20:29:44.995Z,101915.30
2019-03-29T20:32:17.551Z,101918.66
2019-03-29T20:34:49.601Z,101922.14
2019-03-29T20:37:22.221Z,101916.77
2019-03-29T20:39:54.753Z,101912.36
2019-03-29T20:42:27.534Z,101914.18
2019-03-29T20:45:00.007Z,101912.30
2019-03-29T20:47:41.904Z,101911.42
2019-03-29T20:50:06.227Z,101900.80
2019-03-29T20:52:38.303Z,101904.69
2019-03-29T20:55:11.085Z,101905.12
2019-03-29T20:57:43.584Z,101905.52
2019-03-29T21:00:17.404Z,101910.19
2019-03-29T21:02:50.409Z,101908.06
2019-03-29T21:05:22.980Z,101907.93
2019-03-29T21:07:55.355Z,101896.94
2019-03-29T21:10:27.420Z,101902.03
2019-03-29T21:13:00.327Z,101902.84
2019-03-29T21:15:33.014Z,101898.46
2019-03-29T21:18:05.163Z,101899.27
2019-03-29T21:20:37.223Z,101900.08
2019-03-29T21:23:09.274Z,101896.92
2019-03-29T21:25:41.862Z,101899.04
2019-03-29T21:28:13.951Z,101902.42
2019-03-29T21:30:46.487Z,101899.34
2019-03-29T21:33:19.009Z,101897.99
2019-03-29T21:35:51.099Z,101900.06
2019-03-29T21:38:23.935Z,101895.68
2019-03-29T21:40:56.064Z,101894.29
2019-03-29T21:43:28.480Z,101897.58
2019-03-29T21:46:00.619Z,101890.50
2019-03-29T21:48:32.733Z,101884.86
2019-03-29T21:51:05.245Z,101885.56
2019-03-29T21:53:37.308Z,101880.30
2019-03-29T21:56:09.479Z,101878.91
2019-03-29T21:58:41.927Z,101882.72
2019-03-29T22:01:13.991Z,101883.05
2019-03-29T22:03:46.467Z,101885.10
2019-03-29T22:06:18.700Z,101884.11
2019-03-29T22:08:51.156Z,101893.25
2019-03-29T22:11:23.432Z,101892.31
2019-03-29T22:13:55.689Z,101893.92
2019-03-29T22:16:27.701Z,101892.02
2019-03-29T22:19:00.221Z,101893.30
2019-03-29T22:21:33.809Z,101889.34
2019-03-29T22:24:06.812Z,101894.34
2019-03-29T22:26:38.951Z,101895.13
2019-03-29T22:29:11.049Z,101892.10
2019-03-29T22:31:43.109Z,101890.53
2019-03-29T22:34:16.075Z,101886.66
2019-03-29T22:36:48.124Z,101886.09
2019-03-29T22:39:20.782Z,101882.84
2019-03-29T22:41:53.631Z,101879.70
2019-03-29T22:44:25.732Z,101879.92
2019-03-29T22:46:57.793Z,101874.36
2019-03-29T22:49:30.175Z,101883.91
2019-03-29T22:52:03.114Z,101875.50
2019-03-29T22:54:36.039Z,101872.66
2019-03-29T22:57:08.091Z,101871.28
2019-03-29T22:59:40.137Z,101862.00
2019-03-29T23:02:12.404Z,101859.69
2019-03-29T23:04:45.036Z,101853.17
2019-03-29T23:07:18.408Z,101851.09
2019-03-29T23:09:50.845Z,101852.08
2019-03-29T23:12:23.512Z,101847.23
2019-03-29T23:14:55.623Z,101849.71
2019-03-29T23:17:28.072Z,101850.05
2019-03-29T23:20:00.360Z,101849.58
2019-03-29T23:22:32.725Z,101846.02
2019-03-29T23:25:05.211Z,101851.16
2019-03-29T23:27:37.404Z,101853.64
2019-03-29T23:30:10.635Z,101850.02
2019-03-29T23:32:42.688Z,101843.84
2019-03-29T23:35:14.838Z,101846.64
2019-03-29T23:37:47.334Z,101841.11
2019-03-29T23:40:19.445Z,101836.95
2019-03-29T23:42:51.674Z,101835.98
2019-03-29T23:45:23.769Z,101831.94
2019-03-29T23:47:55.847Z,101832.00
2019-03-29T23:50:27.921Z,101836.02
2019-03-29T23:53:00.524Z,101836.36
2019-03-29T23:55:32.915Z,101831.95
2019-03-29T23:58:05.018Z,101829.63
